sensor_id;sensor_type;location;lat;lon;timestamp;temperature;humidity
14000;DHT22;7075;53.574;10.054;2022-10-31T00:01:20;14.80;99.90
14000;DHT22;7075;53.574;10.054;2022-10-31T00:03:45;14.80;99.90
14000;DHT22;7075;53.574;10.054;2022-10-31T00:06:11;14.80;99.90
14000;DHT22;7075;53.574;10.054;2022-10-31T00:08:37;14.90;99.90
14000;DHT22;7075;53.574;10.054;2022-10-31T00:11:02;14.90;99.90
14000;DHT22;7075;53.574;10.054;2022-10-31T00:13:28;14.80;99.90
14000;DHT22;7075;53.574;10.054;2022-10-31T00:15:54;14.80;99.90
14000;DHT22;7075;53.574;10.054;2022-10-31T00:18:19;14.70;99.90
14000;DHT22;7075;53.574;10.054;2022-10-31T00:20:45;14.70;99.90
14000;DHT22;7075;53.574;10.054;2022-10-31T00:23:10;14.60;99.90
14000;DHT22;7075;53.574;10.054;2022-10-31T00:25:38;14.60;99.90
14000;DHT22;7075;53.574;10.054;2022-10-31T00:28:05;14.60;99.90
14000;DHT22;7075;53.574;10.054;2022-10-31T00:30:31;14.60;99.90
14000;DHT22;7075;53.574;10.054;2022-10-31T00:32:57;14.60;99.90
14000;DHT22;7075;53.574;10.054;2022-10-31T00:35:22;14.60;99.90
14000;DHT22;7075;53.574;10.054;2022-10-31T00:37:48;14.50;99.90
14000;DHT22;7075;53.574;10.054;2022-10-31T00:40:14;14.50;99.90
14000;DHT22;7075;53.574;10.054;2022-10-31T00:42:40;14.50;99.90
14000;DHT22;7075;53.574;10.054;2022-10-31T00:45:10;14.50;99.90
14000;DHT22;7075;53.574;10.054;2022-10-31T00:47:35;14.50;99.90
14000;DHT22;7075;53.574;10.054;2022-10-31T00:50:03;14.50;99.90
14000;DHT22;7075;53.574;10.054;2022-10-31T00:52:28;14.50;99.90
14000;DHT22;7075;53.574;10.054;2022-10-31T00:54:54;14.50;99.90
14000;DHT22;7075;53.574;10.054;2022-10-31T00:57:19;14.50;99.90
14000;DHT22;7075;53.574;10.054;2022-10-31T00:59:44;14.50;99.90
14000;DHT22;7075;53.574;10.054;2022-10-31T01:02:10;14.50;99.90
14000;DHT22;7075;53.574;10.054;2022-10-31T01:04:36;14.50;99.90
14000;DHT22;7075;53.574;10.054;2022-10-31T01:07:01;14.40;99.90
14000;DHT22;7075;53.574;10.054;2022-10-31T01:09:27;14.40;99.90
14000;DHT22;7075;53.574;10.054;2022-10-31T01:11:52;14.50;99.90
14000;DHT22;7075;53.574;10.054;2022-10-31T01:14:17;14.50;99.90
14000;DHT22;7075;53.574;10.054;2022-10-31T01:16:43;14.50;99.90
14000;DHT22;7075;53.574;10.054;2022-10-31T01:19:08;14.60;99.90
14000;DHT22;7075;53.574;10.054;2022-10-31T01:21:34;14.60;99.90
14000;DHT22;7075;53.574;10.054;2022-10-31T01:23:59;14.60;99.90
14000;DHT22;7075;53.574;10.054;2022-10-31T01:26:29;14.60;99.90
14000;DHT22;7075;53.574;10.054;2022-10-31T01:28:56;14.60;99.90
14000;DHT22;7075;53.574;10.054;2022-10-31T01:31:26;14.60;99.90
14000;DHT22;7075;53.574;10.054;2022-10-31T01:33:52;14.60;99.90
14000;DHT22;7075;53.574;10.054;2022-10-31T01:36:24;14.60;99.90
14000;DHT22;7075;53.574;10.054;2022-10-31T01:38:51;14.60;99.90
14000;DHT22;7075;53.574;10.054;2022-10-31T01:41:21;14.70;99.90
14000;DHT22;7075;53.574;10.054;2022-10-31T01:43:48;14.70;99.90
14000;DHT22;7075;53.574;10.054;2022-10-31T01:46:17;14.70;99.90
14000;DHT22;7075;53.574;10.054;2022-10-31T01:48:45;14.70;99.90
14000;DHT22;7075;53.574;10.054;2022-10-31T01:51:12;14.60;99.90
14000;DHT22;7075;53.574;10.054;2022-10-31T01:53:40;14.60;99.90
14000;DHT22;7075;53.574;10.054;2022-10-31T01:56:07;14.70;99.90
14000;DHT22;7075;53.574;10.054;2022-10-31T01:58:33;14.70;99.90
14000;DHT22;7075;53.574;10.054;2022-10-31T02:01:00;14.70;99.90
14000;DHT22;7075;53.574;10.054;2022-10-31T02:03:26;14.70;99.90
14000;DHT22;7075;53.574;10.054;2022-10-31T02:05:54;14.70;99.90
14000;DHT22;7075;53.574;10.054;2022-10-31T02:08:26;14.70;99.90
14000;DHT22;7075;53.574;10.054;2022-10-31T02:10:51;14.70;99.90
14000;DHT22;7075;53.574;10.054;2022-10-31T02:13:18;14.70;99.90
14000;DHT22;7075;53.574;10.054;2022-10-31T02:15:47;14.70;99.90
14000;DHT22;7075;53.574;10.054;2022-10-31T02:18:14;14.70;99.90
14000;DHT22;7075;53.574;10.054;2022-10-31T02:20:59;14.60;99.90
14000;DHT22;7075;53.574;10.054;2022-10-31T02:26:50;14.60;99.90
14000;DHT22;7075;53.574;10.054;2022-10-31T02:29:35;14.60;99.90
14000;DHT22;7075;53.574;10.054;2022-10-31T02:32:15;14.60;99.90
14000;DHT22;7075;53.574;10.054;2022-10-31T02:34:57;14.60;99.90
14000;DHT22;7075;53.574;10.054;2022-10-31T02:37:40;14.60;99.90
14000;DHT22;7075;53.574;10.054;2022-10-31T02:40:23;14.50;99.90
14000;DHT22;7075;53.574;10.054;2022-10-31T02:45:49;14.50;99.90
14000;DHT22;7075;53.574;10.054;2022-10-31T02:48:20;14.50;99.90
14000;DHT22;7075;53.574;10.054;2022-10-31T02:50:53;14.60;99.90
14000;DHT22;7075;53.574;10.054;2022-10-31T02:53:20;14.60;99.90
14000;DHT22;7075;53.574;10.054;2022-10-31T02:56:08;14.60;99.90
14000;DHT22;7075;53.574;10.054;2022-10-31T02:58:39;14.60;99.90
14000;DHT22;7075;53.574;10.054;2022-10-31T03:03:40;14.50;99.90
14000;DHT22;7075;53.574;10.054;2022-10-31T03:06:17;14.50;99.90
14000;DHT22;7075;53.574;10.054;2022-10-31T03:12:04;14.50;99.90
14000;DHT22;7075;53.574;10.054;2022-10-31T03:14:46;14.50;99.90
14000;DHT22;7075;53.574;10.054;2022-10-31T03:17:33;14.50;99.90
14000;DHT22;7075;53.574;10.054;2022-10-31T03:20:01;14.40;99.90
14000;DHT22;7075;53.574;10.054;2022-10-31T03:22:29;14.40;99.90
14000;DHT22;7075;53.574;10.054;2022-10-31T03:24:57;14.40;99.90
14000;DHT22;7075;53.574;10.054;2022-10-31T03:27:28;14.40;99.90
14000;DHT22;7075;53.574;10.054;2022-10-31T03:29:58;14.50;99.90
14000;DHT22;7075;53.574;10.054;2022-10-31T03:32:29;14.50;99.90
14000;DHT22;7075;53.574;10.054;2022-10-31T03:34:58;14.40;99.90
14000;DHT22;7075;53.574;10.054;2022-10-31T03:37:26;14.40;99.90
14000;DHT22;7075;53.574;10.054;2022-10-31T03:39:55;14.40;99.90
14000;DHT22;7075;53.574;10.054;2022-10-31T03:42:24;14.40;99.90
14000;DHT22;7075;53.574;10.054;2022-10-31T03:44:56;14.40;99.90
14000;DHT22;7075;53.574;10.054;2022-10-31T03:47:23;14.40;99.90
14000;DHT22;7075;53.574;10.054;2022-10-31T03:49:49;14.30;99.90
14000;DHT22;7075;53.574;10.054;2022-10-31T03:52:28;14.30;99.90
14000;DHT22;7075;53.574;10.054;2022-10-31T03:55:47;14.30;99.90
14000;DHT22;7075;53.574;10.054;2022-10-31T03:58:05;14.30;99.90
14000;DHT22;7075;53.574;10.054;2022-10-31T04:00:33;14.30;99.90
14000;DHT22;7075;53.574;10.054;2022-10-31T04:03:10;14.30;99.90
14000;DHT22;7075;53.574;10.054;2022-10-31T04:09:01;14.30;99.90
14000;DHT22;7075;53.574;10.054;2022-10-31T04:11:31;14.20;99.90
14000;DHT22;7075;53.574;10.054;2022-10-31T04:13:59;14.30;99.90
14000;DHT22;7075;53.574;10.054;2022-10-31T04:16:27;14.20;99.90
14000;DHT22;7075;53.574;10.054;2022-10-31T04:18:52;14.20;99.90
14000;DHT22;7075;53.574;10.054;2022-10-31T04:21:18;14.20;99.90
14000;DHT22;7075;53.574;10.054;2022-10-31T04:23:44;14.10;99.90
14000;DHT22;7075;53.574;10.054;2022-10-31T04:26:13;14.10;99.90
14000;DHT22;7075;53.574;10.054;2022-10-31T04:28:38;14.10;99.90
14000;DHT22;7075;53.574;10.054;2022-10-31T04:31:04;14.10;99.90
14000;DHT22;7075;53.574;10.054;2022-10-31T04:33:29;14.10;99.90
14000;DHT22;7075;53.574;10.054;2022-10-31T04:35:55;14.10;99.90
14000;DHT22;7075;53.574;10.054;2022-10-31T04:38:20;14.10;99.90
14000;DHT22;7075;53.574;10.054;2022-10-31T04:40:46;14.10;99.90
14000;DHT22;7075;53.574;10.054;2022-10-31T04:43:12;14.10;99.90
14000;DHT22;7075;53.574;10.054;2022-10-31T04:45:37;14.10;99.90
14000;DHT22;7075;53.574;10.054;2022-10-31T04:48:03;14.10;99.90
14000;DHT22;7075;53.574;10.054;2022-10-31T04:50:29;14.10;99.90
14000;DHT22;7075;53.574;10.054;2022-10-31T04:52:54;14.10;99.90
14000;DHT22;7075;53.574;10.054;2022-10-31T04:55:20;14.20;99.90
14000;DHT22;7075;53.574;10.054;2022-10-31T04:57:47;14.10;99.90
14000;DHT22;7075;53.574;10.054;2022-10-31T05:00:15;14.10;99.90
14000;DHT22;7075;53.574;10.054;2022-10-31T05:02:45;14.10;99.90
14000;DHT22;7075;53.574;10.054;2022-10-31T05:05:16;14.10;99.90
14000;DHT22;7075;53.574;10.054;2022-10-31T05:07:43;14.10;99.90
14000;DHT22;7075;53.574;10.054;2022-10-31T05:10:10;14.10;99.90
14000;DHT22;7075;53.574;10.054;2022-10-31T05:12:37;14.10;99.90
14000;DHT22;7075;53.574;10.054;2022-10-31T05:15:04;14.10;99.90
14000;DHT22;7075;53.574;10.054;2022-10-31T05:17:31;14.10;99.90
14000;DHT22;7075;53.574;10.054;2022-10-31T05:19:56;14.10;99.90
14000;DHT22;7075;53.574;10.054;2022-10-31T05:22:21;14.10;99.90
14000;DHT22;7075;53.574;10.054;2022-10-31T05:24:47;14.10;99.90
14000;DHT22;7075;53.574;10.054;2022-10-31T05:27:12;14.10;99.90
14000;DHT22;7075;53.574;10.054;2022-10-31T05:29:38;14.10;99.90
14000;DHT22;7075;53.574;10.054;2022-10-31T05:32:03;14.10;99.90
14000;DHT22;7075;53.574;10.054;2022-10-31T05:34:29;14.10;99.90
14000;DHT22;7075;53.574;10.054;2022-10-31T05:36:54;14.10;99.90
14000;DHT22;7075;53.574;10.054;2022-10-31T05:39:20;14.10;99.90
14000;DHT22;7075;53.574;10.054;2022-10-31T05:41:45;14.10;99.90
14000;DHT22;7075;53.574;10.054;2022-10-31T05:44:11;14.20;99.90
14000;DHT22;7075;53.574;10.054;2022-10-31T05:46:36;14.10;99.90
14000;DHT22;7075;53.574;10.054;2022-10-31T05:49:02;14.10;99.90
14000;DHT22;7075;53.574;10.054;2022-10-31T05:51:27;14.10;99.90
14000;DHT22;7075;53.574;10.054;2022-10-31T05:53:53;14.10;99.90
14000;DHT22;7075;53.574;10.054;2022-10-31T05:56:18;14.10;99.90
14000;DHT22;7075;53.574;10.054;2022-10-31T05:58:44;14.10;99.90
14000;DHT22;7075;53.574;10.054;2022-10-31T06:01:09;14.00;99.90
14000;DHT22;7075;53.574;10.054;2022-10-31T06:03:35;14.10;99.90
14000;DHT22;7075;53.574;10.054;2022-10-31T06:06:00;14.10;99.90
14000;DHT22;7075;53.574;10.054;2022-10-31T06:08:26;14.10;99.90
14000;DHT22;7075;53.574;10.054;2022-10-31T06:10:52;14.10;99.90
14000;DHT22;7075;53.574;10.054;2022-10-31T06:13:19;14.10;99.90
14000;DHT22;7075;53.574;10.054;2022-10-31T06:15:44;14.10;99.90
14000;DHT22;7075;53.574;10.054;2022-10-31T06:18:10;14.00;99.90
14000;DHT22;7075;53.574;10.054;2022-10-31T06:20:35;14.00;99.90
14000;DHT22;7075;53.574;10.054;2022-10-31T06:23:02;14.00;99.90
14000;DHT22;7075;53.574;10.054;2022-10-31T06:25:27;14.00;99.90
14000;DHT22;7075;53.574;10.054;2022-10-31T06:27:53;14.00;99.90
14000;DHT22;7075;53.574;10.054;2022-10-31T06:30:19;14.00;99.90
14000;DHT22;7075;53.574;10.054;2022-10-31T06:32:45;14.00;99.90
14000;DHT22;7075;53.574;10.054;2022-10-31T06:35:10;14.00;99.90
14000;DHT22;7075;53.574;10.054;2022-10-31T06:37:36;14.00;99.90
14000;DHT22;7075;53.574;10.054;2022-10-31T06:40:02;14.00;99.90
14000;DHT22;7075;53.574;10.054;2022-10-31T06:42:27;14.00;99.90
14000;DHT22;7075;53.574;10.054;2022-10-31T06:44:53;14.00;99.90
14000;DHT22;7075;53.574;10.054;2022-10-31T06:47:18;14.10;99.90
14000;DHT22;7075;53.574;10.054;2022-10-31T06:49:44;14.10;99.90
14000;DHT22;7075;53.574;10.054;2022-10-31T06:52:10;14.10;99.90
14000;DHT22;7075;53.574;10.054;2022-10-31T06:54:35;14.10;99.90
14000;DHT22;7075;53.574;10.054;2022-10-31T06:57:01;14.10;99.90
14000;DHT22;7075;53.574;10.054;2022-10-31T06:59:26;14.10;99.90
14000;DHT22;7075;53.574;10.054;2022-10-31T07:01:51;14.10;99.90
14000;DHT22;7075;53.574;10.054;2022-10-31T07:04:17;14.20;99.90
14000;DHT22;7075;53.574;10.054;2022-10-31T07:06:43;14.10;99.90
14000;DHT22;7075;53.574;10.054;2022-10-31T07:09:08;14.10;99.90
14000;DHT22;7075;53.574;10.054;2022-10-31T07:11:34;14.10;99.90
14000;DHT22;7075;53.574;10.054;2022-10-31T07:13:59;14.20;99.90
14000;DHT22;7075;53.574;10.054;2022-10-31T07:16:25;14.20;99.90
14000;DHT22;7075;53.574;10.054;2022-10-31T07:18:50;14.10;99.90
14000;DHT22;7075;53.574;10.054;2022-10-31T07:21:16;14.00;99.90
14000;DHT22;7075;53.574;10.054;2022-10-31T07:23:41;13.90;99.90
14000;DHT22;7075;53.574;10.054;2022-10-31T07:26:08;13.90;99.90
14000;DHT22;7075;53.574;10.054;2022-10-31T07:28:34;13.80;99.90
14000;DHT22;7075;53.574;10.054;2022-10-31T07:31:00;13.80;99.90
14000;DHT22;7075;53.574;10.054;2022-10-31T07:33:25;13.80;99.90
14000;DHT22;7075;53.574;10.054;2022-10-31T07:35:51;13.90;99.90
14000;DHT22;7075;53.574;10.054;2022-10-31T07:38:17;13.90;99.90
14000;DHT22;7075;53.574;10.054;2022-10-31T07:40:43;13.90;99.90
14000;DHT22;7075;53.574;10.054;2022-10-31T07:43:10;13.90;99.90
14000;DHT22;7075;53.574;10.054;2022-10-31T07:45:36;13.90;99.90
14000;DHT22;7075;53.574;10.054;2022-10-31T07:48:02;13.90;99.90
14000;DHT22;7075;53.574;10.054;2022-10-31T07:50:31;13.80;99.90
14000;DHT22;7075;53.574;10.054;2022-10-31T07:53:04;13.80;99.90
14000;DHT22;7075;53.574;10.054;2022-10-31T07:55:30;13.90;99.90
14000;DHT22;7075;53.574;10.054;2022-10-31T07:58:00;13.80;99.90
14000;DHT22;7075;53.574;10.054;2022-10-31T08:00:26;13.80;99.90
14000;DHT22;7075;53.574;10.054;2022-10-31T08:03:03;13.80;99.90
14000;DHT22;7075;53.574;10.054;2022-10-31T08:05:29;13.80;99.90
14000;DHT22;7075;53.574;10.054;2022-10-31T08:07:55;13.90;99.90
14000;DHT22;7075;53.574;10.054;2022-10-31T08:10:21;13.90;99.90
14000;DHT22;7075;53.574;10.054;2022-10-31T08:12:52;13.90;99.90
14000;DHT22;7075;53.574;10.054;2022-10-31T08:15:19;13.90;99.90
14000;DHT22;7075;53.574;10.054;2022-10-31T08:17:45;14.00;99.90
14000;DHT22;7075;53.574;10.054;2022-10-31T08:20:10;14.10;99.90
14000;DHT22;7075;53.574;10.054;2022-10-31T08:22:36;14.10;99.90
14000;DHT22;7075;53.574;10.054;2022-10-31T08:25:05;14.10;99.90
14000;DHT22;7075;53.574;10.054;2022-10-31T08:27:30;14.10;99.90
14000;DHT22;7075;53.574;10.054;2022-10-31T08:29:56;14.10;99.90
14000;DHT22;7075;53.574;10.054;2022-10-31T08:32:21;14.10;99.90
14000;DHT22;7075;53.574;10.054;2022-10-31T08:34:46;14.10;99.90
14000;DHT22;7075;53.574;10.054;2022-10-31T08:37:12;14.10;99.90
14000;DHT22;7075;53.574;10.054;2022-10-31T08:39:38;14.10;99.90
14000;DHT22;7075;53.574;10.054;2022-10-31T08:42:03;14.10;99.90
14000;DHT22;7075;53.574;10.054;2022-10-31T08:44:32;14.10;99.90
14000;DHT22;7075;53.574;10.054;2022-10-31T08:46:57;14.10;99.90
14000;DHT22;7075;53.574;10.054;2022-10-31T08:49:22;14.20;99.90
14000;DHT22;7075;53.574;10.054;2022-10-31T08:51:48;14.10;99.90
14000;DHT22;7075;53.574;10.054;2022-10-31T08:54:14;14.10;99.90
14000;DHT22;7075;53.574;10.054;2022-10-31T08:56:39;14.20;99.90
14000;DHT22;7075;53.574;10.054;2022-10-31T08:59:05;14.30;99.90
14000;DHT22;7075;53.574;10.054;2022-10-31T09:01:30;14.30;99.90
14000;DHT22;7075;53.574;10.054;2022-10-31T09:03:56;14.40;99.90
14000;DHT22;7075;53.574;10.054;2022-10-31T09:06:40;14.40;99.90
14000;DHT22;7075;53.574;10.054;2022-10-31T09:09:05;14.50;99.90
14000;DHT22;7075;53.574;10.054;2022-10-31T09:11:34;14.50;99.90
14000;DHT22;7075;53.574;10.054;2022-10-31T09:13:59;14.50;99.90
14000;DHT22;7075;53.574;10.054;2022-10-31T09:16:47;14.50;99.90
14000;DHT22;7075;53.574;10.054;2022-10-31T09:19:12;14.40;99.90
14000;DHT22;7075;53.574;10.054;2022-10-31T09:21:38;14.20;99.90
14000;DHT22;7075;53.574;10.054;2022-10-31T09:24:04;14.30;99.90
14000;DHT22;7075;53.574;10.054;2022-10-31T09:26:29;14.20;99.90
14000;DHT22;7075;53.574;10.054;2022-10-31T09:28:55;14.20;99.90
14000;DHT22;7075;53.574;10.054;2022-10-31T09:31:22;14.30;99.90
14000;DHT22;7075;53.574;10.054;2022-10-31T09:33:48;14.40;99.90
14000;DHT22;7075;53.574;10.054;2022-10-31T09:36:13;14.30;99.90
14000;DHT22;7075;53.574;10.054;2022-10-31T09:38:39;14.30;99.90
14000;DHT22;7075;53.574;10.054;2022-10-31T09:41:28;14.20;99.90
14000;DHT22;7075;53.574;10.054;2022-10-31T09:44:07;14.30;99.90
14000;DHT22;7075;53.574;10.054;2022-10-31T09:46:46;14.40;99.90
14000;DHT22;7075;53.574;10.054;2022-10-31T09:49:36;14.50;99.90
14000;DHT22;7075;53.574;10.054;2022-10-31T09:52:18;14.40;99.90
14000;DHT22;7075;53.574;10.054;2022-10-31T09:55:14;14.30;99.90
14000;DHT22;7075;53.574;10.054;2022-10-31T09:57:51;14.10;99.90
14000;DHT22;7075;53.574;10.054;2022-10-31T10:00:20;14.00;99.90
14000;DHT22;7075;53.574;10.054;2022-10-31T10:05:39;14.10;99.90
14000;DHT22;7075;53.574;10.054;2022-10-31T10:08:10;14.20;99.90
14000;DHT22;7075;53.574;10.054;2022-10-31T10:17:00;14.50;99.90
14000;DHT22;7075;53.574;10.054;2022-10-31T10:19:47;14.60;99.90
14000;DHT22;7075;53.574;10.054;2022-10-31T10:22:35;14.70;99.90
14000;DHT22;7075;53.574;10.054;2022-10-31T10:25:53;14.70;99.90
14000;DHT22;7075;53.574;10.054;2022-10-31T10:28:32;14.70;99.90
14000;DHT22;7075;53.574;10.054;2022-10-31T10:31:27;14.70;99.90
14000;DHT22;7075;53.574;10.054;2022-10-31T10:37:03;14.70;99.90
14000;DHT22;7075;53.574;10.054;2022-10-31T10:39:55;14.80;99.90
14000;DHT22;7075;53.574;10.054;2022-10-31T10:42:24;14.80;99.90
14000;DHT22;7075;53.574;10.054;2022-10-31T10:45:18;14.90;99.90
14000;DHT22;7075;53.574;10.054;2022-10-31T10:48:29;15.00;99.90
14000;DHT22;7075;53.574;10.054;2022-10-31T10:50:57;15.10;99.90
14000;DHT22;7075;53.574;10.054;2022-10-31T10:53:45;15.10;99.90
14000;DHT22;7075;53.574;10.054;2022-10-31T10:56:41;15.10;99.90
14000;DHT22;7075;53.574;10.054;2022-10-31T10:59:13;15.20;99.90
14000;DHT22;7075;53.574;10.054;2022-10-31T11:01:40;15.10;99.90
14000;DHT22;7075;53.574;10.054;2022-10-31T11:04:30;15.20;99.90
14000;DHT22;7075;53.574;10.054;2022-10-31T11:09:26;15.00;99.90
14000;DHT22;7075;53.574;10.054;2022-10-31T11:11:58;15.10;99.90
14000;DHT22;7075;53.574;10.054;2022-10-31T11:14:24;15.10;99.90
14000;DHT22;7075;53.574;10.054;2022-10-31T11:17:08;15.20;99.90
14000;DHT22;7075;53.574;10.054;2022-10-31T11:19:34;15.20;99.90
14000;DHT22;7075;53.574;10.054;2022-10-31T11:22:12;15.30;99.90
14000;DHT22;7075;53.574;10.054;2022-10-31T11:24:41;15.30;99.90
14000;DHT22;7075;53.574;10.054;2022-10-31T11:27:20;15.50;99.90
14000;DHT22;7075;53.574;10.054;2022-10-31T11:29:50;15.70;99.90
14000;DHT22;7075;53.574;10.054;2022-10-31T11:32:23;16.00;99.90
14000;DHT22;7075;53.574;10.054;2022-10-31T11:35:08;16.10;99.90
14000;DHT22;7075;53.574;10.054;2022-10-31T11:37:41;15.90;99.90
14000;DHT22;7075;53.574;10.054;2022-10-31T11:40:17;15.70;99.90
14000;DHT22;7075;53.574;10.054;2022-10-31T11:42:43;15.40;99.90
14000;DHT22;7075;53.574;10.054;2022-10-31T11:45:27;15.20;99.90
14000;DHT22;7075;53.574;10.054;2022-10-31T11:47:56;15.30;99.90
14000;DHT22;7075;53.574;10.054;2022-10-31T11:50:37;15.50;99.90
14000;DHT22;7075;53.574;10.054;2022-10-31T11:53:09;15.60;99.90
14000;DHT22;7075;53.574;10.054;2022-10-31T11:55:38;16.10;99.90
14000;DHT22;7075;53.574;10.054;2022-10-31T11:58:23;16.40;99.90
14000;DHT22;7075;53.574;10.054;2022-10-31T12:00:51;16.40;99.90
14000;DHT22;7075;53.574;10.054;2022-10-31T12:06:16;17.00;99.90
14000;DHT22;7075;53.574;10.054;2022-10-31T12:08:43;16.70;99.90
14000;DHT22;7075;53.574;10.054;2022-10-31T12:11:43;16.60;99.90
14000;DHT22;7075;53.574;10.054;2022-10-31T12:17:21;16.40;99.90
14000;DHT22;7075;53.574;10.054;2022-10-31T12:20:20;16.70;99.90
14000;DHT22;7075;53.574;10.054;2022-10-31T12:25:44;15.90;99.90
14000;DHT22;7075;53.574;10.054;2022-10-31T12:31:34;15.90;99.90
14000;DHT22;7075;53.574;10.054;2022-10-31T12:53:40;16.10;99.90
14000;DHT22;7075;53.574;10.054;2022-10-31T12:56:51;16.10;99.90
14000;DHT22;7075;53.574;10.054;2022-10-31T13:02:16;15.80;99.90
14000;DHT22;7075;53.574;10.054;2022-10-31T13:08:00;15.90;99.90
14000;DHT22;7075;53.574;10.054;2022-10-31T13:10:52;15.90;99.90
14000;DHT22;7075;53.574;10.054;2022-10-31T13:13:27;16.00;99.90
14000;DHT22;7075;53.574;10.054;2022-10-31T13:16:07;16.10;99.90
14000;DHT22;7075;53.574;10.054;2022-10-31T13:21:15;16.20;99.90
14000;DHT22;7075;53.574;10.054;2022-10-31T13:23:45;15.80;99.90
14000;DHT22;7075;53.574;10.054;2022-10-31T13:26:38;15.70;99.90
14000;DHT22;7075;53.574;10.054;2022-10-31T13:29:11;15.40;99.90
14000;DHT22;7075;53.574;10.054;2022-10-31T13:31:42;15.30;99.90
14000;DHT22;7075;53.574;10.054;2022-10-31T13:34:39;15.40;99.90
14000;DHT22;7075;53.574;10.054;2022-10-31T13:40:17;15.70;99.90
14000;DHT22;7075;53.574;10.054;2022-10-31T13:43:06;16.20;99.90
14000;DHT22;7075;53.574;10.054;2022-10-31T13:45:52;16.80;99.90
14000;DHT22;7075;53.574;10.054;2022-10-31T13:51:00;17.60;99.90
14000;DHT22;7075;53.574;10.054;2022-10-31T13:54:01;17.90;99.90
14000;DHT22;7075;53.574;10.054;2022-10-31T13:56:33;18.20;99.90
14000;DHT22;7075;53.574;10.054;2022-10-31T14:01:50;18.50;99.90
14000;DHT22;7075;53.574;10.054;2022-10-31T14:04:22;18.50;99.90
14000;DHT22;7075;53.574;10.054;2022-10-31T14:07:16;18.60;99.90
14000;DHT22;7075;53.574;10.054;2022-10-31T14:10:02;18.60;99.90
14000;DHT22;7075;53.574;10.054;2022-10-31T14:12:37;18.60;99.90
14000;DHT22;7075;53.574;10.054;2022-10-31T14:15:20;18.40;99.90
14000;DHT22;7075;53.574;10.054;2022-10-31T14:18:06;18.20;99.90
14000;DHT22;7075;53.574;10.054;2022-10-31T14:20:40;18.20;99.90
14000;DHT22;7075;53.574;10.054;2022-10-31T14:43:23;17.70;99.90
14000;DHT22;7075;53.574;10.054;2022-10-31T14:46:02;17.70;99.90
14000;DHT22;7075;53.574;10.054;2022-10-31T14:51:22;17.50;99.90
14000;DHT22;7075;53.574;10.054;2022-10-31T14:53:55;17.40;99.90
14000;DHT22;7075;53.574;10.054;2022-10-31T14:56:32;17.30;99.90
14000;DHT22;7075;53.574;10.054;2022-10-31T14:59:02;17.20;99.90
14000;DHT22;7075;53.574;10.054;2022-10-31T15:01:36;17.10;99.90
14000;DHT22;7075;53.574;10.054;2022-10-31T15:04:23;17.00;99.90
14000;DHT22;7075;53.574;10.054;2022-10-31T15:10:06;16.90;99.90
14000;DHT22;7075;53.574;10.054;2022-10-31T15:12:55;16.80;99.90
14000;DHT22;7075;53.574;10.054;2022-10-31T15:15:22;16.70;99.90
14000;DHT22;7075;53.574;10.054;2022-10-31T15:17:51;16.70;99.90
14000;DHT22;7075;53.574;10.054;2022-10-31T15:20:21;16.60;99.90
14000;DHT22;7075;53.574;10.054;2022-10-31T15:22:48;16.60;99.90
14000;DHT22;7075;53.574;10.054;2022-10-31T15:25:20;16.60;99.90
14000;DHT22;7075;53.574;10.054;2022-10-31T15:27:47;16.50;99.90
14000;DHT22;7075;53.574;10.054;2022-10-31T15:30:22;16.50;99.90
14000;DHT22;7075;53.574;10.054;2022-10-31T15:32:48;16.40;99.90
14000;DHT22;7075;53.574;10.054;2022-10-31T15:35:28;16.40;99.90
14000;DHT22;7075;53.574;10.054;2022-10-31T15:38:06;16.40;99.90
14000;DHT22;7075;53.574;10.054;2022-10-31T15:40:32;16.40;99.90
14000;DHT22;7075;53.574;10.054;2022-10-31T15:43:02;16.40;99.90
14000;DHT22;7075;53.574;10.054;2022-10-31T15:45:29;16.30;99.90
14000;DHT22;7075;53.574;10.054;2022-10-31T15:48:00;16.30;99.90
14000;DHT22;7075;53.574;10.054;2022-10-31T15:50:37;16.20;99.90
14000;DHT22;7075;53.574;10.054;2022-10-31T15:53:06;16.20;99.90
14000;DHT22;7075;53.574;10.054;2022-10-31T15:56:08;16.10;99.90
14000;DHT22;7075;53.574;10.054;2022-10-31T15:58:54;16.10;99.90
14000;DHT22;7075;53.574;10.054;2022-10-31T16:06:38;15.90;99.90
14000;DHT22;7075;53.574;10.054;2022-10-31T16:09:22;15.90;99.90
14000;DHT22;7075;53.574;10.054;2022-10-31T16:11:48;15.80;99.90
14000;DHT22;7075;53.574;10.054;2022-10-31T16:14:20;15.80;99.90
14000;DHT22;7075;53.574;10.054;2022-10-31T16:16:52;15.70;99.90
14000;DHT22;7075;53.574;10.054;2022-10-31T16:19:27;15.70;99.90
14000;DHT22;7075;53.574;10.054;2022-10-31T16:22:05;15.70;99.90
14000;DHT22;7075;53.574;10.054;2022-10-31T16:24:45;15.60;99.90
14000;DHT22;7075;53.574;10.054;2022-10-31T16:27:38;15.60;99.90
14000;DHT22;7075;53.574;10.054;2022-10-31T16:32:55;15.50;99.90
14000;DHT22;7075;53.574;10.054;2022-10-31T16:35:36;15.50;99.90
14000;DHT22;7075;53.574;10.054;2022-10-31T16:38:05;15.50;99.90
14000;DHT22;7075;53.574;10.054;2022-10-31T16:40:31;15.50;99.90
14000;DHT22;7075;53.574;10.054;2022-10-31T16:42:58;15.70;99.90
14000;DHT22;7075;53.574;10.054;2022-10-31T16:45:28;16.10;99.90
14000;DHT22;7075;53.574;10.054;2022-10-31T16:48:03;16.20;99.90
14000;DHT22;7075;53.574;10.054;2022-10-31T16:50:32;16.10;99.90
14000;DHT22;7075;53.574;10.054;2022-10-31T16:52:58;16.10;99.90
14000;DHT22;7075;53.574;10.054;2022-10-31T16:55:23;15.90;99.90
14000;DHT22;7075;53.574;10.054;2022-10-31T16:57:51;15.80;99.90
14000;DHT22;7075;53.574;10.054;2022-10-31T17:00:20;15.60;99.90
14000;DHT22;7075;53.574;10.054;2022-10-31T17:02:48;15.50;99.90
14000;DHT22;7075;53.574;10.054;2022-10-31T17:05:16;15.50;99.90
14000;DHT22;7075;53.574;10.054;2022-10-31T17:07:45;15.50;99.90
14000;DHT22;7075;53.574;10.054;2022-10-31T17:10:14;15.40;99.90
14000;DHT22;7075;53.574;10.054;2022-10-31T17:12:42;15.40;99.90
14000;DHT22;7075;53.574;10.054;2022-10-31T17:15:22;15.40;99.90
14000;DHT22;7075;53.574;10.054;2022-10-31T17:17:49;15.50;99.90
14000;DHT22;7075;53.574;10.054;2022-10-31T17:20:27;15.50;99.90
14000;DHT22;7075;53.574;10.054;2022-10-31T17:22:54;15.50;99.90
14000;DHT22;7075;53.574;10.054;2022-10-31T17:25:25;15.50;99.90
14000;DHT22;7075;53.574;10.054;2022-10-31T17:27:50;15.40;99.90
14000;DHT22;7075;53.574;10.054;2022-10-31T17:30:17;15.40;99.90
14000;DHT22;7075;53.574;10.054;2022-10-31T17:32:44;15.40;99.90
14000;DHT22;7075;53.574;10.054;2022-10-31T17:35:13;15.40;99.90
14000;DHT22;7075;53.574;10.054;2022-10-31T17:37:41;15.30;99.90
14000;DHT22;7075;53.574;10.054;2022-10-31T17:40:08;15.30;99.90
14000;DHT22;7075;53.574;10.054;2022-10-31T17:42:34;15.30;99.90
14000;DHT22;7075;53.574;10.054;2022-10-31T17:45:00;15.30;99.90
14000;DHT22;7075;53.574;10.054;2022-10-31T17:47:25;15.30;99.90